createdAt,value
2023-03-29T00:01:02.460Z,100684.53
2023-03-29T00:03:30.850Z,100711.00
2023-03-29T00:06:04.073Z,100633.06
2023-03-29T00:08:32.351Z,100732.16
2023-03-29T00:10:59.472Z,100726.66
2023-03-29T00:13:27.479Z,100679.34
2023-03-29T00:15:54.646Z,100718.00
2023-03-29T00:18:21.431Z,100727.47
2023-03-29T00:20:57.485Z,100716.31
2023-03-29T00:23:25.163Z,100723.84
2023-03-29T00:25:55.146Z,100716.19
2023-03-29T00:28:22.202Z,100719.53
2023-03-29T00:30:50.965Z,100683.88
2023-03-29T00:33:20.629Z,100614.47
2023-03-29T00:35:50.934Z,100676.72
2023-03-29T00:38:17.996Z,100657.25
2023-03-29T00:40:46.928Z,100687.88
2023-03-29T00:43:14.617Z,100651.59
2023-03-29T00:45:41.648Z,100696.03
2023-03-29T00:48:13.119Z,100678.91
2023-03-29T00:50:47.548Z,100667.41
2023-03-29T00:53:28.540Z,100673.22
2023-03-29T00:55:59.832Z,100667.41
2023-03-29T00:58:39.537Z,100621.28
2023-03-29T01:01:08.904Z,100655.41
2023-03-29T01:03:47.198Z,100655.25
2023-03-29T01:06:15.405Z,100609.97
2023-03-29T01:08:45.652Z,100653.56
2023-03-29T01:11:18.516Z,100650.25
2023-03-29T01:13:49.352Z,100643.56
2023-03-29T01:16:19.425Z,100652.22
2023-03-29T01:18:49.012Z,100607.44
2023-03-29T01:21:25.512Z,100611.31
2023-03-29T01:23:58.384Z,100654.22
2023-03-29T01:27:05.569Z,100643.06
2023-03-29T01:29:38.773Z,100643.22
2023-03-29T01:32:43.283Z,100568.38
2023-03-29T01:35:43.813Z,100653.25
2023-03-29T01:38:16.466Z,100651.72
2023-03-29T01:40:43.607Z,100555.75
2023-03-29T01:43:32.394Z,100644.75
2023-03-29T01:46:07.276Z,100635.25
2023-03-29T01:48:40.460Z,100623.13
2023-03-29T01:51:23.806Z,100607.00
2023-03-29T01:53:53.009Z,100591.00
2023-03-29T01:56:24.998Z,100613.63
2023-03-29T01:58:53.821Z,100610.31
2023-03-29T02:01:23.248Z,100613.47
2023-03-29T02:03:51.150Z,100566.41
2023-03-29T02:06:21.041Z,100615.63
2023-03-29T02:08:47.888Z,100569.06
2023-03-29T02:11:14.850Z,100609.47
2023-03-29T02:13:41.776Z,100576.03
2023-03-29T02:16:12.721Z,100621.81
2023-03-29T02:18:44.304Z,100628.63
2023-03-29T02:21:21.364Z,100602.31
2023-03-29T02:23:49.419Z,100605.00
2023-03-29T02:26:17.917Z,100640.41
2023-03-29T02:28:44.701Z,100633.97
2023-03-29T02:31:30.570Z,100621.97
2023-03-29T02:34:02.341Z,100622.81
2023-03-29T02:37:00.211Z,100620.81
2023-03-29T02:39:28.338Z,100617.97
2023-03-29T02:41:55.121Z,100574.22
2023-03-29T02:44:24.480Z,100604.50
2023-03-29T02:46:51.586Z,100597.50
2023-03-29T02:49:18.418Z,100565.22
2023-03-29T02:51:45.226Z,100541.28
2023-03-29T02:54:23.301Z,100591.53
2023-03-29T02:56:55.501Z,100549.28
2023-03-29T02:59:25.052Z,100533.81
2023-03-29T03:01:52.733Z,100534.13
2023-03-29T03:04:23.029Z,100546.78
2023-03-29T03:06:49.741Z,100545.44
2023-03-29T03:09:16.953Z,100561.56
2023-03-29T03:11:43.734Z,100539.47
2023-03-29T03:14:11.074Z,100495.25
2023-03-29T03:16:38.005Z,100540.16
2023-03-29T03:19:05.033Z,100525.66
2023-03-29T03:21:31.886Z,100430.38
2023-03-29T03:23:58.810Z,100536.78
2023-03-29T03:26:25.589Z,100497.88
2023-03-29T03:28:52.310Z,100531.47
2023-03-29T03:31:19.904Z,100511.53
2023-03-29T03:33:46.829Z,100493.25
2023-03-29T03:36:14.120Z,100541.78
2023-03-29T03:38:41.592Z,100512.72
2023-03-29T03:41:09.264Z,100509.69
2023-03-29T03:43:44.059Z,100470.47
2023-03-29T03:46:10.860Z,100517.84
2023-03-29T03:48:37.737Z,100481.25
2023-03-29T03:51:05.005Z,100491.25
2023-03-29T03:53:32.363Z,100469.16
2023-03-29T03:55:59.103Z,100494.25
2023-03-29T03:58:27.198Z,100523.34
2023-03-29T04:00:55.000Z,100537.13
2023-03-29T04:03:21.888Z,100482.91
2023-03-29T04:05:51.954Z,100496.06
2023-03-29T04:08:19.242Z,100515.69
2023-03-29T04:10:53.482Z,100474.41
2023-03-29T04:13:20.280Z,100499.50
2023-03-29T04:15:49.955Z,100514.66
2023-03-29T04:18:19.827Z,100513.16
2023-03-29T04:20:49.355Z,100506.19
2023-03-29T04:23:16.189Z,100468.59
2023-03-29T04:25:43.319Z,100478.88
2023-03-29T04:28:11.112Z,100501.34
2023-03-29T04:30:38.085Z,100467.25
2023-03-29T04:33:04.873Z,100484.03
2023-03-29T04:35:31.881Z,100498.81
2023-03-29T04:37:58.742Z,100501.66
2023-03-29T04:40:25.470Z,100499.69
2023-03-29T04:42:52.656Z,100502.34
2023-03-29T04:45:19.629Z,100480.06
2023-03-29T04:47:46.510Z,100494.38
2023-03-29T04:50:13.996Z,100497.88
2023-03-29T04:52:41.125Z,100507.84
2023-03-29T04:55:08.339Z,100483.06
2023-03-29T04:57:35.152Z,100521.84
2023-03-29T05:00:02.158Z,100520.31
2023-03-29T05:02:32.424Z,100513.84
2023-03-29T05:04:59.422Z,100487.72
2023-03-29T05:07:26.257Z,100512.66
2023-03-29T05:09:53.563Z,100517.34
2023-03-29T05:12:20.395Z,100510.84
2023-03-29T05:14:47.320Z,100512.84
2023-03-29T05:17:14.357Z,100507.00
2023-03-29T05:19:41.487Z,100479.06
2023-03-29T05:22:09.171Z,100512.34
2023-03-29T05:24:36.307Z,100513.50
2023-03-29T05:27:03.756Z,100462.63
2023-03-29T05:29:33.018Z,100512.34
2023-03-29T05:31:59.967Z,100514.00
2023-03-29T05:34:27.106Z,100509.84
2023-03-29T05:36:53.964Z,100491.19
2023-03-29T05:39:21.222Z,100540.09
2023-03-29T05:41:48.255Z,100557.22
2023-03-29T05:44:14.986Z,100540.59
2023-03-29T05:46:42.078Z,100571.34
2023-03-29T05:49:08.917Z,100574.03
2023-03-29T05:51:35.746Z,100552.09
2023-03-29T05:54:02.468Z,100556.91
2023-03-29T05:56:29.388Z,100555.91
2023-03-29T05:58:57.133Z,100546.25
2023-03-29T06:01:24.694Z,100550.56
2023-03-29T06:03:52.350Z,100526.47
2023-03-29T06:06:19.410Z,100537.44
2023-03-29T06:08:46.570Z,100521.50
2023-03-29T06:11:13.642Z,100540.63
2023-03-29T06:13:41.580Z,100535.44
2023-03-29T06:16:09.331Z,100527.81
2023-03-29T06:18:36.403Z,100540.09
2023-03-29T06:21:03.686Z,100435.94
2023-03-29T06:23:30.847Z,100545.91
2023-03-29T06:25:58.187Z,100519.59
2023-03-29T06:28:25.034Z,100549.38
2023-03-29T06:30:54.138Z,100511.91
2023-03-29T06:33:21.221Z,100552.34
2023-03-29T06:35:48.468Z,100555.03
2023-03-29T06:38:15.718Z,100548.72
2023-03-29T06:40:44.622Z,100519.94
2023-03-29T06:43:11.345Z,100549.75
2023-03-29T06:45:38.843Z,100524.75
2023-03-29T06:48:06.460Z,100549.91
2023-03-29T06:50:34.354Z,100546.75
2023-03-29T06:53:01.924Z,100558.06
2023-03-29T06:55:28.917Z,100554.72
2023-03-29T06:57:55.659Z,100550.75
2023-03-29T07:00:28.428Z,100544.63
2023-03-29T07:02:56.482Z,100526.13
2023-03-29T07:05:24.087Z,100511.38
2023-03-29T07:07:57.250Z,100549.44
2023-03-29T07:10:34.037Z,100522.19
2023-03-29T07:13:01.132Z,100560.56
2023-03-29T07:15:28.408Z,100554.09
2023-03-29T07:17:56.024Z,100522.16
2023-03-29T07:20:23.225Z,100570.72
2023-03-29T07:22:51.574Z,100569.72
2023-03-29T07:25:19.109Z,100593.78
2023-03-29T07:27:46.500Z,100596.13
2023-03-29T07:30:18.578Z,100598.66
2023-03-29T07:32:46.649Z,100598.66
2023-03-29T07:35:14.715Z,100612.47
2023-03-29T07:37:43.032Z,100543.47
2023-03-29T07:40:13.520Z,100556.75
2023-03-29T07:42:40.428Z,100600.69
2023-03-29T07:45:08.704Z,100592.31
2023-03-29T07:47:35.664Z,100633.13
2023-03-29T07:50:02.964Z,100632.47
2023-03-29T07:52:30.194Z,100656.94
2023-03-29T07:54:57.641Z,100658.75
2023-03-29T07:57:25.135Z,100650.56
2023-03-29T07:59:51.944Z,100641.78
2023-03-29T08:02:19.807Z,100640.25
2023-03-29T08:04:46.940Z,100615.63
2023-03-29T08:07:16.375Z,100607.78
2023-03-29T08:09:45.263Z,100620.59
2023-03-29T08:12:12.037Z,100637.00
2023-03-29T08:14:38.934Z,100632.63
2023-03-29T08:17:06.081Z,100618.47
2023-03-29T08:19:32.887Z,100627.94
2023-03-29T08:22:00.982Z,100636.34
2023-03-29T08:24:27.883Z,100611.72
2023-03-29T08:26:54.661Z,100652.28
2023-03-29T08:29:22.445Z,100642.59
2023-03-29T08:31:49.592Z,100652.75
2023-03-29T08:34:16.375Z,100648.28
2023-03-29T08:36:43.199Z,100648.13
2023-03-29T08:39:10.231Z,100616.25
2023-03-29T08:41:41.991Z,100651.00
2023-03-29T08:44:14.326Z,100654.88
2023-03-29T08:46:48.047Z,100639.41
2023-03-29T08:49:14.982Z,100655.06
2023-03-29T08:51:45.512Z,100668.88
2023-03-29T08:54:31.182Z,100658.06
2023-03-29T08:57:18.701Z,100649.34
2023-03-29T08:59:45.785Z,100654.84
2023-03-29T09:02:18.134Z,100630.09
2023-03-29T09:04:45.321Z,100626.53
2023-03-29T09:07:12.071Z,100654.75
2023-03-29T09:09:38.822Z,100601.66
2023-03-29T09:12:09.020Z,100668.81
2023-03-29T09:14:48.058Z,100670.75
2023-03-29T09:17:42.880Z,100660.50
2023-03-29T09:20:40.957Z,100652.78
2023-03-29T09:23:18.235Z,100659.59
2023-03-29T09:26:12.970Z,100652.53
2023-03-29T09:28:49.070Z,100647.13
2023-03-29T09:31:28.830Z,100618.34
2023-03-29T09:34:31.808Z,100659.75
2023-03-29T09:37:09.162Z,100611.28
2023-03-29T09:39:36.990Z,100664.81
2023-03-29T09:42:12.017Z,100658.72
2023-03-29T09:44:52.963Z,100632.91
2023-03-29T09:47:31.713Z,100648.63
2023-03-29T09:50:30.351Z,100655.88
2023-03-29T09:52:58.594Z,100658.97
2023-03-29T09:55:28.011Z,100655.38
2023-03-29T09:57:56.292Z,100669.16
2023-03-29T10:00:23.145Z,100654.81
2023-03-29T10:02:53.971Z,100676.66
2023-03-29T10:05:22.122Z,100682.72
2023-03-29T10:07:51.522Z,100667.44
2023-03-29T10:10:27.505Z,100671.25
2023-03-29T10:12:57.212Z,100675.44
2023-03-29T10:15:29.625Z,100692.38
2023-03-29T10:18:03.333Z,100659.16
2023-03-29T10:20:30.253Z,100682.69
2023-03-29T10:22:58.835Z,100679.63
2023-03-29T10:25:30.212Z,100685.69
2023-03-29T10:28:32.501Z,100691.66
2023-03-29T10:31:01.012Z,100683.63
2023-03-29T10:33:31.257Z,100678.25
2023-03-29T10:35:58.044Z,100664.25
2023-03-29T10:38:28.117Z,100673.78
2023-03-29T10:40:57.087Z,100667.31
2023-03-29T10:43:29.763Z,100641.78
2023-03-29T10:45:57.678Z,100656.63
2023-03-29T10:48:28.882Z,100675.59
2023-03-29T10:50:58.451Z,100670.44
2023-03-29T10:53:26.328Z,100707.81
2023-03-29T10:56:17.702Z,100671.31
2023-03-29T10:59:04.532Z,100661.03
2023-03-29T11:02:13.331Z,100663.28
2023-03-29T11:04:58.491Z,100686.56
2023-03-29T11:07:30.062Z,100681.94
2023-03-29T11:10:02.423Z,100693.34
2023-03-29T11:12:57.837Z,100683.84
2023-03-29T11:15:39.932Z,100674.66
2023-03-29T11:18:41.990Z,100666.69
2023-03-29T11:21:33.611Z,100674.53
2023-03-29T11:24:15.686Z,100704.31
2023-03-29T11:26:53.706Z,100677.00
2023-03-29T11:29:29.642Z,100630.00
2023-03-29T11:31:59.853Z,100634.44
2023-03-29T11:34:45.670Z,100659.59
2023-03-29T11:37:38.737Z,100664.31
2023-03-29T11:40:20.533Z,100647.72
2023-03-29T11:42:48.669Z,100648.22
2023-03-29T11:45:35.676Z,100630.41
2023-03-29T11:48:03.160Z,100653.66
2023-03-29T11:50:36.022Z,100613.25
2023-03-29T11:53:08.501Z,100635.72
2023-03-29T11:55:37.205Z,100656.81
2023-03-29T11:58:13.043Z,100628.78
2023-03-29T12:00:44.961Z,100635.84
2023-03-29T12:03:43.076Z,100633.25
2023-03-29T12:06:28.136Z,100635.03
2023-03-29T12:09:00.723Z,100631.47
2023-03-29T12:11:39.353Z,100631.75
2023-03-29T12:14:22.345Z,100625.38
2023-03-29T12:16:58.527Z,100643.19
2023-03-29T12:20:07.627Z,100626.06
2023-03-29T12:22:34.435Z,100639.75
2023-03-29T12:25:01.194Z,100628.97
2023-03-29T12:27:40.221Z,100630.19
2023-03-29T12:30:15.955Z,100624.47
2023-03-29T12:33:10.583Z,100615.19
2023-03-29T12:35:43.503Z,100623.81
2023-03-29T12:38:19.407Z,100613.81
2023-03-29T12:40:47.864Z,100635.41
2023-03-29T12:43:26.583Z,100589.97
2023-03-29T12:46:15.417Z,100635.28
2023-03-29T12:48:42.589Z,100621.69
2023-03-29T12:51:14.118Z,100608.81
2023-03-29T12:53:41.782Z,100611.91
2023-03-29T12:56:17.019Z,100642.25
2023-03-29T12:58:52.296Z,100635.31
2023-03-29T13:01:29.263Z,100641.63
2023-03-29T13:04:01.988Z,100640.88
2023-03-29T13:06:51.195Z,100621.97
2023-03-29T13:09:31.093Z,100639.38
2023-03-29T13:12:10.600Z,100639.44
2023-03-29T13:14:38.201Z,100630.66
2023-03-29T13:17:17.795Z,100647.53
2023-03-29T13:19:48.052Z,100657.56
2023-03-29T13:22:36.147Z,100596.09
2023-03-29T13:25:24.668Z,100647.78
2023-03-29T13:28:11.088Z,100658.97
2023-03-29T13:30:59.971Z,100653.66
2023-03-29T13:33:53.262Z,100663.78
2023-03-29T13:37:09.863Z,100679.66
2023-03-29T13:39:37.528Z,100646.13
2023-03-29T13:42:29.089Z,100691.78
2023-03-29T13:45:37.075Z,100692.41
2023-03-29T13:48:25.501Z,100664.16
2023-03-29T13:51:22.249Z,100698.59
2023-03-29T13:53:55.395Z,100689.41
2023-03-29T13:56:27.441Z,100690.97
2023-03-29T13:59:20.517Z,100682.84
2023-03-29T14:01:50.732Z,100655.13
2023-03-29T14:04:23.259Z,100676.03
2023-03-29T14:06:52.891Z,100700.47
2023-03-29T14:09:20.601Z,100685.91
2023-03-29T14:11:47.597Z,100704.09
2023-03-29T14:14:14.906Z,100716.69
2023-03-29T14:16:42.349Z,100710.06
2023-03-29T14:19:13.841Z,100697.28
2023-03-29T14:21:41.665Z,100675.69
2023-03-29T14:24:12.973Z,100686.84
2023-03-29T14:26:44.375Z,100696.56
2023-03-29T14:29:12.153Z,100692.56
2023-03-29T14:31:40.797Z,100671.88
2023-03-29T14:34:17.561Z,100690.16
2023-03-29T14:36:45.657Z,100679.84
2023-03-29T14:39:20.474Z,100665.94
2023-03-29T14:41:52.844Z,100698.06
2023-03-29T14:44:21.271Z,100696.28
2023-03-29T14:46:48.240Z,100668.16
2023-03-29T14:49:19.748Z,100695.06
2023-03-29T14:51:46.912Z,100700.59
2023-03-29T14:54:19.602Z,100685.81
2023-03-29T14:56:48.506Z,100703.56
2023-03-29T14:59:39.099Z,100610.75
2023-03-29T15:02:22.146Z,100696.72
2023-03-29T15:04:55.500Z,100701.78
2023-03-29T15:07:28.546Z,100696.31
2023-03-29T15:09:56.297Z,100693.47
2023-03-29T15:12:23.135Z,100684.91
2023-03-29T15:14:53.053Z,100702.19
2023-03-29T15:17:39.425Z,100721.81
2023-03-29T15:20:16.902Z,100701.66
2023-03-29T15:23:19.054Z,100715.59
2023-03-29T15:25:57.154Z,100710.47
2023-03-29T15:28:27.145Z,100731.16
2023-03-29T15:31:07.254Z,100697.25
2023-03-29T15:33:36.812Z,100725.16
2023-03-29T15:36:04.599Z,100742.53
2023-03-29T15:38:43.374Z,100709.78
2023-03-29T15:41:11.093Z,100726.31
2023-03-29T15:43:38.034Z,100715.38
2023-03-29T15:46:05.174Z,100737.66
2023-03-29T15:48:33.965Z,100740.88
2023-03-29T15:51:05.752Z,100729.41
2023-03-29T15:53:33.380Z,100721.66
2023-03-29T15:56:02.122Z,100727.97
2023-03-29T15:58:32.724Z,100750.66
2023-03-29T16:01:11.546Z,100735.19
2023-03-29T16:03:39.117Z,100739.53
2023-03-29T16:06:06.417Z,100733.84
2023-03-29T16:08:33.233Z,100732.38
2023-03-29T16:10:59.979Z,100707.22
2023-03-29T16:13:26.759Z,100752.28
2023-03-29T16:15:53.640Z,100743.34
2023-03-29T16:18:20.359Z,100742.59
2023-03-29T16:20:47.242Z,100741.91
2023-03-29T16:23:14.210Z,100684.25
2023-03-29T16:25:41.214Z,100735.66
2023-03-29T16:28:08.724Z,100745.34
2023-03-29T16:30:36.101Z,100736.84
2023-03-29T16:33:08.430Z,100721.69
2023-03-29T16:35:38.072Z,100737.34
2023-03-29T16:38:04.951Z,100743.06
2023-03-29T16:40:31.792Z,100737.09
2023-03-29T16:43:00.234Z,100741.69
2023-03-29T16:45:27.375Z,100735.22
2023-03-29T16:47:54.708Z,100743.53
2023-03-29T16:50:22.185Z,100721.66
2023-03-29T16:52:49.029Z,100751.41
2023-03-29T16:55:19.083Z,100753.97
2023-03-29T16:57:46.960Z,100766.69
2023-03-29T17:00:16.035Z,100764.53
2023-03-29T17:02:46.235Z,100758.06
2023-03-29T17:05:13.088Z,100748.28
2023-03-29T17:07:39.893Z,100719.72
2023-03-29T17:10:08.307Z,100713.72
2023-03-29T17:12:35.556Z,100751.00
2023-03-29T17:15:03.039Z,100741.88
2023-03-29T17:17:29.934Z,100760.38
2023-03-29T17:19:56.869Z,100740.59
2023-03-29T17:22:24.177Z,100758.06
2023-03-29T17:24:51.003Z,100753.91
2023-03-29T17:27:18.288Z,100751.44
2023-03-29T17:29:45.000Z,100762.59
2023-03-29T17:32:11.747Z,100755.13
2023-03-29T17:34:39.156Z,100750.78
2023-03-29T17:37:05.963Z,100741.97
2023-03-29T17:39:35.126Z,100753.13
2023-03-29T17:42:02.019Z,100754.94
2023-03-29T17:44:28.919Z,100744.31
2023-03-29T17:46:55.788Z,100741.81
2023-03-29T17:49:22.846Z,100719.16
2023-03-29T17:51:49.686Z,100660.38
2023-03-29T17:54:16.635Z,100747.97
2023-03-29T17:56:43.510Z,100753.28
2023-03-29T17:59:10.262Z,100754.78
2023-03-29T18:01:39.074Z,100767.28
2023-03-29T18:04:06.552Z,100765.47
2023-03-29T18:06:33.302Z,100716.50
2023-03-29T18:09:01.715Z,100771.09
2023-03-29T18:11:29.284Z,100737.31
2023-03-29T18:13:58.748Z,100749.97
2023-03-29T18:16:25.825Z,100774.13
2023-03-29T18:18:52.799Z,100772.44
2023-03-29T18:21:19.692Z,100727.81
2023-03-29T18:23:47.295Z,100761.97
2023-03-29T18:26:15.003Z,100760.94
2023-03-29T18:28:41.759Z,100772.09
2023-03-29T18:31:08.542Z,100779.44
2023-03-29T18:33:35.628Z,100739.59
2023-03-29T18:36:10.808Z,100761.94
2023-03-29T18:38:40.846Z,100742.25
2023-03-29T18:41:09.397Z,100774.09
2023-03-29T18:43:37.107Z,100751.59
2023-03-29T18:46:04.094Z,100783.72
2023-03-29T18:48:31.335Z,100770.22
2023-03-29T18:50:58.296Z,100786.72
2023-03-29T18:53:25.293Z,100787.56
2023-03-29T18:55:52.023Z,100705.06
2023-03-29T18:58:20.446Z,100788.09
2023-03-29T19:00:47.338Z,100786.22
2023-03-29T19:03:14.275Z,100777.88
2023-03-29T19:05:41.169Z,100783.19
2023-03-29T19:08:09.180Z,100787.81
2023-03-29T19:10:36.849Z,100799.97
2023-03-29T19:13:04.259Z,100772.00
2023-03-29T19:15:32.518Z,100756.34
2023-03-29T19:17:59.448Z,100804.31
2023-03-29T19:20:26.675Z,100778.97
2023-03-29T19:22:53.858Z,100763.66
2023-03-29T19:25:20.849Z,100802.16
2023-03-29T19:27:48.014Z,100790.13
2023-03-29T19:30:15.170Z,100781.44
2023-03-29T19:32:41.935Z,100754.94
2023-03-29T19:35:09.822Z,100796.47
2023-03-29T19:37:36.764Z,100806.59
2023-03-29T19:40:06.550Z,100804.44
2023-03-29T19:42:36.176Z,100767.47
2023-03-29T19:45:04.216Z,100796.81
2023-03-29T19:47:31.241Z,100795.94
2023-03-29T19:50:01.242Z,100790.47
2023-03-29T19:52:28.441Z,100784.28
2023-03-29T19:54:56.473Z,100713.31
2023-03-29T19:57:23.982Z,100795.09
2023-03-29T19:59:53.347Z,100815.91
2023-03-29T20:02:20.076Z,100731.41
2023-03-29T20:04:46.845Z,100825.72
2023-03-29T20:07:13.904Z,100822.56
2023-03-29T20:09:43.931Z,100809.88
2023-03-29T20:12:12.121Z,100783.38
2023-03-29T20:14:40.495Z,100776.56
2023-03-29T20:17:07.842Z,100808.38
2023-03-29T20:19:36.740Z,100820.22
2023-03-29T20:22:04.273Z,100795.56
2023-03-29T20:24:32.817Z,100834.00
2023-03-29T20:26:59.640Z,100829.31
2023-03-29T20:29:27.462Z,100834.81
2023-03-29T20:31:54.271Z,100814.66
2023-03-29T20:34:21.240Z,100839.00
2023-03-29T20:36:48.877Z,100828.16
2023-03-29T20:39:18.922Z,100847.13
2023-03-29T20:41:49.275Z,100836.69
2023-03-29T20:44:16.988Z,100848.81
2023-03-29T20:46:54.597Z,100815.59
2023-03-29T20:49:26.644Z,100844.94
2023-03-29T20:51:59.022Z,100822.44
2023-03-29T20:54:26.021Z,100852.13
2023-03-29T20:56:55.151Z,100864.38
2023-03-29T20:59:23.095Z,100836.75
2023-03-29T21:01:50.561Z,100853.22
2023-03-29T21:04:17.574Z,100871.09
2023-03-29T21:06:46.009Z,100878.41
2023-03-29T21:09:13.733Z,100838.75
2023-03-29T21:11:40.975Z,100889.38
2023-03-29T21:14:09.677Z,100882.41
2023-03-29T21:16:36.904Z,100883.53
2023-03-29T21:19:03.668Z,100888.50
2023-03-29T21:21:30.533Z,100884.34
2023-03-29T21:23:57.929Z,100872.31
2023-03-29T21:26:24.681Z,100890.81
2023-03-29T21:28:51.623Z,100874.31
2023-03-29T21:31:18.491Z,100889.28
2023-03-29T21:33:46.123Z,100883.44
2023-03-29T21:36:13.150Z,100910.56
2023-03-29T21:38:41.449Z,100906.88
2023-03-29T21:41:12.186Z,100895.09
2023-03-29T21:43:40.063Z,100904.91
2023-03-29T21:46:07.273Z,100910.56
2023-03-29T21:48:34.323Z,100899.25
2023-03-29T21:51:01.627Z,100911.69
2023-03-29T21:53:30.047Z,100919.06
2023-03-29T21:55:57.066Z,100925.84
2023-03-29T21:58:24.286Z,100919.16
2023-03-29T22:00:51.557Z,100926.47
2023-03-29T22:03:18.574Z,100916.34
2023-03-29T22:06:05.525Z,100915.69
2023-03-29T22:08:32.885Z,100897.09
2023-03-29T22:11:08.647Z,100906.84
2023-03-29T22:13:41.558Z,100908.13
2023-03-29T22:16:17.006Z,100882.44
2023-03-29T22:18:44.622Z,100907.47
2023-03-29T22:21:13.873Z,100904.13
2023-03-29T22:23:45.515Z,100895.53
2023-03-29T22:26:13.127Z,100881.72
2023-03-29T22:28:40.479Z,100858.81
2023-03-29T22:31:08.786Z,100888.88
2023-03-29T22:33:36.077Z,100890.53
2023-03-29T22:36:12.304Z,100848.53
2023-03-29T22:38:39.280Z,100850.06
2023-03-29T22:41:06.602Z,100857.25
2023-03-29T22:43:33.467Z,100876.97
2023-03-29T22:46:00.523Z,100837.75
2023-03-29T22:48:27.809Z,100891.28
2023-03-29T22:50:54.721Z,100900.28
2023-03-29T22:53:21.730Z,100876.25
2023-03-29T22:55:48.475Z,100865.56
2023-03-29T22:58:15.381Z,100880.00
2023-03-29T23:00:42.211Z,100867.22
2023-03-29T23:03:09.136Z,100894.09
2023-03-29T23:05:36.541Z,100876.91
2023-03-29T23:08:03.374Z,100869.09
2023-03-29T23:10:30.689Z,100906.97
2023-03-29T23:13:08.825Z,100868.66
2023-03-29T23:15:42.884Z,100872.31
2023-03-29T23:18:13.250Z,100914.34
2023-03-29T23:20:40.877Z,100901.84
2023-03-29T23:23:07.768Z,100913.22
2023-03-29T23:25:34.721Z,100920.00
2023-03-29T23:28:03.002Z,100917.69
2023-03-29T23:30:32.488Z,100920.72
2023-03-29T23:33:00.312Z,100909.16
2023-03-29T23:35:27.164Z,100935.50
2023-03-29T23:37:54.563Z,100949.97
2023-03-29T23:40:21.691Z,100956.28
2023-03-29T23:42:49.124Z,100964.41
2023-03-29T23:45:18.386Z,100937.78
2023-03-29T23:47:45.614Z,100954.13
2023-03-29T23:50:13.771Z,100962.56
2023-03-29T23:52:51.787Z,100877.31
2023-03-29T23:55:19.048Z,100953.19
2023-03-29T23:57:45.855Z,100971.19
